Time;durP1;ratioP1;P1;durP2;ratioP2;P2;SDS_P1;SDS_P2;PMS_P1;PMS_P2;Temp;Humidity;BMP_temperature;BMP_pressure;BME280_temperature;BME280_humidity;BME280_pressure;Samples;Min_cycle;Max_cycle;Signal;HPM_P1;HPM_P2
2023/08/04 00:00:19;;;;;;;7.43;6.90;;;;;;;29.14;58.20;98899.31;5033963;28;20248;-72
2023/08/04 00:02:46;;;;;;;7.07;6.67;;;;;;;29.22;58.06;98902.34;5033968;28;20642;-72
2023/08/04 00:05:14;;;;;;;7.10;6.60;;;;;;;29.12;58.79;98900.78;5033934;28;20228;-74
2023/08/04 00:07:43;;;;;;;7.60;7.10;;;;;;;29.19;58.15;98901.03;5033394;28;20279;-73
2023/08/04 00:10:11;;;;;;;7.47;7.07;;;;;;;29.19;58.66;98893.66;5032892;28;20657;-73
2023/08/04 00:12:37;;;;;;;7.50;6.90;;;;;;;29.07;58.96;98895.47;5033901;28;20205;-72
2023/08/04 00:15:05;;;;;;;7.40;6.90;;;;;;;29.02;59.11;98901.97;5033750;28;20197;-72
2023/08/04 00:17:33;;;;;;;7.23;6.77;;;;;;;28.81;59.95;98900.28;5033935;28;20548;-72
2023/08/04 00:19:59;;;;;;;7.33;6.57;;;;;;;28.67;60.15;98899.72;5033446;28;20204;-73
2023/08/04 00:22:27;;;;;;;8.00;7.40;;;;;;;28.58;60.87;98901.69;5033591;28;20653;-72
2023/08/04 00:24:54;;;;;;;7.27;6.77;;;;;;;28.12;62.45;98890.69;5033667;28;20229;-72
2023/08/04 00:27:21;;;;;;;7.60;7.00;;;;;;;28.27;61.81;98884.69;5033022;28;20717;-71
2023/08/04 00:29:47;;;;;;;7.23;6.70;;;;;;;28.25;61.93;98892.41;5033410;28;20619;-71
2023/08/04 00:32:14;;;;;;;7.27;6.70;;;;;;;28.20;62.07;98896.13;5033312;28;20665;-72
2023/08/04 00:34:41;;;;;;;7.50;6.97;;;;;;;28.34;61.82;98895.94;5033853;28;20193;-71
2023/08/04 00:37:07;;;;;;;7.30;6.83;;;;;;;28.43;61.29;98894.00;5032903;28;20200;-75
2023/08/04 00:39:35;;;;;;;6.97;6.47;;;;;;;28.16;62.20;98888.91;5013707;28;20260;-71
2023/08/04 00:42:02;;;;;;;7.73;7.13;;;;;;;28.22;61.83;98893.88;5013417;28;20205;-71
2023/08/04 00:44:29;;;;;;;8.23;7.63;;;;;;;28.27;61.67;98890.16;5013324;28;20197;-71
2023/08/04 00:46:56;;;;;;;7.97;7.50;;;;;;;28.34;61.63;98893.22;5026370;28;20267;-72
2023/08/04 00:49:23;;;;;;;8.63;7.73;;;;;;;28.35;61.40;98894.81;5032880;28;20629;-71
2023/08/04 00:51:51;;;;;;;7.83;7.33;;;;;;;28.40;61.10;98894.63;5032952;28;20244;-72
2023/08/04 00:54:18;;;;;;;8.10;7.67;;;;;;;28.28;61.53;98899.97;5033068;28;20258;-72
2023/08/04 00:56:47;;;;;;;7.90;7.30;;;;;;;28.36;61.22;98899.13;5032100;28;20201;-72
2023/08/04 00:59:13;;;;;;;8.00;7.43;;;;;;;28.35;61.13;98903.81;5032716;28;20190;-74
2023/08/04 01:01:40;;;;;;;7.27;6.87;;;;;;;28.25;61.83;98903.34;5032537;28;20201;-72
2023/08/04 01:04:07;;;;;;;7.60;7.10;;;;;;;28.26;61.62;98900.28;5032717;28;20189;-73
2023/08/04 01:06:44;;;;;;;7.80;7.20;;;;;;;28.22;61.44;98882.16;5032811;28;20225;-72
2023/08/04 01:09:17;;;;;;;7.90;7.37;;;;;;;28.33;61.38;98899.78;5032161;28;20579;-70
2023/08/04 01:11:57;;;;;;;8.50;7.90;;;;;;;28.38;61.16;98902.34;5032595;28;20641;-69
2023/08/04 01:14:26;;;;;;;8.17;7.47;;;;;;;28.36;61.14;98904.59;5032797;28;20181;-70
2023/08/04 01:16:53;;;;;;;7.20;6.80;;;;;;;28.34;61.18;98899.44;5032923;28;20201;-70
2023/08/04 01:19:19;;;;;;;7.47;6.97;;;;;;;28.07;62.31;98909.97;5032746;28;20194;-69
2023/08/04 01:21:47;;;;;;;7.97;7.23;;;;;;;27.85;63.18;98904.72;5031502;28;20193;-72
2023/08/04 01:24:14;;;;;;;7.90;7.30;;;;;;;27.66;63.93;98906.94;5032356;28;20735;-71
2023/08/04 01:26:45;;;;;;;7.80;7.13;;;;;;;27.61;63.88;98907.09;5032554;28;20582;-72
2023/08/04 01:29:14;;;;;;;7.87;7.13;;;;;;;27.35;65.37;98914.44;5032286;28;20273;-72
2023/08/04 01:31:42;;;;;;;7.83;7.43;;;;;;;27.49;64.59;98913.19;5031689;28;20194;-73
2023/08/04 01:34:08;;;;;;;7.37;6.73;;;;;;;27.22;65.78;98918.13;5031729;28;20193;-71
2023/08/04 01:36:35;;;;;;;7.67;6.97;;;;;;;27.38;64.97;98922.00;5032382;28;20197;-71
2023/08/04 01:39:03;;;;;;;7.33;6.73;;;;;;;27.53;64.08;98924.25;5032437;28;20255;-72
2023/08/04 01:41:30;;;;;;;7.30;6.70;;;;;;;27.55;63.45;98909.19;5032187;28;20224;-71
2023/08/04 01:43:57;;;;;;;7.77;7.00;;;;;;;27.68;63.59;98932.00;5031449;28;20197;-72
2023/08/04 01:46:23;;;;;;;7.37;6.67;;;;;;;27.62;63.56;98930.53;5031971;28;20201;-72
2023/08/04 01:48:50;;;;;;;7.67;7.07;;;;;;;27.55;63.82;98928.28;5032251;28;20197;-72
2023/08/04 01:51:17;;;;;;;9.00;6.80;;;;;;;27.37;64.82;98931.31;5031859;28;20259;-72
2023/08/04 01:53:43;;;;;;;7.30;6.83;;;;;;;26.94;66.65;98927.63;5031881;28;20563;-71
2023/08/04 01:56:11;;;;;;;7.77;7.27;;;;;;;27.02;66.29;98940.47;5031699;28;20678;-72
2023/08/04 01:58:38;;;;;;;8.37;7.67;;;;;;;26.62;67.70;98941.63;5031891;28;20223;-71
2023/08/04 02:01:05;;;;;;;7.80;7.20;;;;;;;26.61;67.94;98940.00;5031742;28;20193;-71
2023/08/04 02:03:33;;;;;;;8.07;7.67;;;;;;;26.71;67.96;98945.97;5032191;28;20189;-71
2023/08/04 02:05:59;;;;;;;8.03;7.43;;;;;;;26.93;67.10;98942.38;5032011;28;20280;-71
2023/08/04 02:08:26;;;;;;;8.77;7.97;;;;;;;26.96;67.10;98941.75;5031113;28;20767;-70
2023/08/04 02:10:53;;;;;;;7.93;7.23;;;;;;;27.07;67.00;98937.63;5031048;28;20617;-70
2023/08/04 02:13:21;;;;;;;8.90;8.20;;;;;;;26.75;68.40;98943.44;5031637;28;20197;-69
2023/08/04 02:15:47;;;;;;;8.23;7.47;;;;;;;26.70;68.84;98951.78;5031876;28;20274;-69
2023/08/04 02:18:14;;;;;;;8.47;7.67;;;;;;;26.84;68.25;98955.19;5031994;28;20197;-70
2023/08/04 02:20:41;;;;;;;8.07;7.57;;;;;;;26.71;68.67;98956.09;5031291;28;20569;-69
2023/08/04 02:23:08;;;;;;;8.40;7.70;;;;;;;26.81;68.72;98959.34;5031914;28;20197;-70
2023/08/04 02:25:36;;;;;;;7.83;7.30;;;;;;;26.88;68.34;98958.88;5032048;28;20225;-71
2023/08/04 02:28:03;;;;;;;9.43;8.10;;;;;;;26.96;67.63;98961.66;5030909;28;20221;-71
2023/08/04 02:30:31;;;;;;;8.30;7.67;;;;;;;27.02;67.13;98967.75;5031747;28;20281;-72
2023/08/04 02:32:57;;;;;;;7.80;7.30;;;;;;;27.10;67.02;98969.69;5031504;28;20198;-71
2023/08/04 02:35:24;;;;;;;8.37;7.77;;;;;;;27.16;66.72;98969.25;5031521;28;20566;-71
2023/08/04 02:37:51;;;;;;;7.27;6.80;;;;;;;27.20;66.58;98975.69;5031556;28;20197;-73
2023/08/04 02:40:17;;;;;;;8.27;7.67;;;;;;;27.07;66.72;98965.69;5031038;28;20197;-71
2023/08/04 02:42:44;;;;;;;7.90;7.20;;;;;;;27.18;66.66;98972.47;5031371;28;20193;-71
2023/08/04 02:45:11;;;;;;;7.67;7.10;;;;;;;27.16;66.60;98971.97;5031783;28;20630;-72
2023/08/04 02:47:39;;;;;;;8.37;7.77;;;;;;;27.23;66.47;98971.56;5031596;28;20279;-72
2023/08/04 02:50:08;;;;;;;8.63;7.83;;;;;;;27.28;66.41;98971.41;5030840;28;20613;-74
2023/08/04 02:52:35;;;;;;;8.03;7.53;;;;;;;27.11;66.73;98976.78;5031596;28;20189;-72
2023/08/04 02:55:02;;;;;;;8.77;8.10;;;;;;;26.84;67.91;98975.09;5031704;28;20197;-73
2023/08/04 02:57:31;;;;;;;9.17;8.37;;;;;;;26.77;68.15;98982.06;5031383;28;20288;-71
2023/08/04 02:59:58;;;;;;;9.30;8.50;;;;;;;26.63;68.66;98979.47;5030773;28;20681;-71
2023/08/04 03:02:25;;;;;;;8.07;7.47;;;;;;;26.85;68.15;98978.59;5031145;28;20244;-71
2023/08/04 03:04:53;;;;;;;9.73;9.03;;;;;;;26.82;68.02;98990.16;5031607;28;20193;-70
2023/08/04 03:07:20;;;;;;;9.27;8.53;;;;;;;26.69;68.45;98982.84;5030937;28;20221;-71
2023/08/04 03:09:46;;;;;;;9.63;8.23;;;;;;;26.61;69.25;98984.41;5030474;28;20742;-70
2023/08/04 03:12:13;;;;;;;10.57;8.47;;;;;;;26.71;68.61;98986.06;5031367;28;20194;-70
2023/08/04 03:14:40;;;;;;;9.37;8.30;;;;;;;26.83;68.16;98989.81;5031526;28;20255;-70
2023/08/04 03:17:06;;;;;;;9.10;8.30;;;;;;;26.97;67.64;98992.44;5031263;28;20201;-72
2023/08/04 03:19:33;;;;;;;9.00;8.30;;;;;;;27.02;67.11;98995.00;5031834;28;20228;-70
2023/08/04 03:22:01;;;;;;;8.93;8.10;;;;;;;27.09;66.87;98995.38;5030491;28;20255;-71
2023/08/04 03:24:28;;;;;;;11.80;10.83;;;;;;;26.86;67.50;98985.69;5034553;28;20294;-70
2023/08/04 03:26:54;;;;;;;14.80;13.40;;;;;;;26.88;67.96;98992.41;5034357;28;20193;-68
2023/08/04 03:29:21;;;;;;;10.73;9.27;;;;;;;26.76;68.63;99002.28;5034648;28;20637;-68
2023/08/04 03:31:48;;;;;;;8.90;8.07;;;;;;;26.79;68.14;98996.22;5034337;28;20665;-69
2023/08/04 03:34:15;;;;;;;11.57;10.50;;;;;;;26.17;70.44;98997.25;5033942;28;20197;-68
2023/08/04 03:36:41;;;;;;;17.03;15.53;;;;;;;26.44;70.00;98999.81;5034675;28;20626;-70
2023/08/04 03:39:09;;;;;;;12.13;9.30;;;;;;;26.67;68.88;99004.97;5034587;28;20252;-70
2023/08/04 03:41:36;;;;;;;9.80;8.70;;;;;;;26.70;68.85;99009.78;5034401;28;20193;-69
2023/08/04 03:44:03;;;;;;;9.40;8.43;;;;;;;26.85;68.17;99005.84;5033538;28;20197;-68
2023/08/04 03:46:29;;;;;;;9.27;8.33;;;;;;;27.04;67.70;99014.59;5034103;28;20665;-68
2023/08/04 03:48:56;;;;;;;9.93;8.17;;;;;;;27.20;67.30;99019.34;5034029;28;20773;-68
2023/08/04 03:51:23;;;;;;;11.20;8.07;;;;;;;27.29;66.53;99016.66;5033436;28;20198;-73
2023/08/04 03:53:49;;;;;;;7.93;7.43;;;;;;;27.23;66.82;99020.66;5033490;28;20638;-70
2023/08/04 03:56:17;;;;;;;9.47;8.53;;;;;;;27.02;67.57;99016.84;5034356;28;20256;-71
2023/08/04 03:58:44;;;;;;;8.77;8.03;;;;;;;27.01;67.14;99020.69;5033919;28;20249;-71
2023/08/04 04:01:11;;;;;;;9.17;8.20;;;;;;;26.86;68.13;99029.28;5033729;28;20224;-69
2023/08/04 04:03:38;;;;;;;9.63;8.93;;;;;;;27.15;66.97;99024.13;5033491;28;20193;-69
2023/08/04 04:06:04;;;;;;;10.10;8.93;;;;;;;27.45;66.00;99034.19;5033866;28;20193;-69
2023/08/04 04:08:31;;;;;;;8.57;7.87;;;;;;;28.03;64.48;99031.91;5033821;28;20217;-70
2023/08/04 04:10:58;;;;;;;8.40;7.73;;;;;;;28.67;61.70;99031.72;5033934;28;20228;-71
2023/08/04 04:13:26;;;;;;;9.20;8.33;;;;;;;29.35;58.76;99038.13;5033052;28;20734;-71
2023/08/04 04:15:53;;;;;;;8.97;7.93;;;;;;;29.68;57.62;99039.88;5013805;28;20194;-70
2023/08/04 04:18:19;;;;;;;11.73;7.43;;;;;;;30.29;55.43;99049.31;5013685;28;20673;-71
2023/08/04 04:20:46;;;;;;;8.70;7.57;;;;;;;30.55;54.16;99053.41;5014307;28;20194;-71
2023/08/04 04:23:13;;;;;;;8.80;8.07;;;;;;;30.60;53.89;99047.72;5013883;28;20194;-71
2023/08/04 04:25:40;;;;;;;11.10;8.03;;;;;;;31.36;51.28;99062.53;5017668;28;20287;-72
2023/08/04 04:28:07;;;;;;;11.33;8.30;;;;;;;31.56;49.57;99056.16;5033525;28;20283;-73
2023/08/04 04:30:35;;;;;;;8.77;8.03;;;;;;;31.36;50.05;99050.78;5033325;28;20245;-72
2023/08/04 04:33:01;;;;;;;11.43;8.00;;;;;;;31.61;49.94;99064.16;5033412;28;20189;-73
2023/08/04 04:35:28;;;;;;;8.33;7.70;;;;;;;32.31;47.64;99060.91;5032510;28;20209;-72
2023/08/04 04:37:55;;;;;;;9.73;7.50;;;;;;;32.89;46.38;99065.69;5033067;28;20259;-72
2023/08/04 04:40:21;;;;;;;9.60;7.30;;;;;;;33.57;44.62;99063.53;5033490;28;20197;-72
2023/08/04 04:42:48;;;;;;;9.18;7.80;;;;;;;34.33;42.72;99071.19;5033044;28;20622;-71
2023/08/04 04:45:15;;;;;;;8.15;7.38;;;;;;;34.88;40.42;99079.03;5032802;28;20205;-72
2023/08/04 04:47:43;;;;;;;8.57;7.80;;;;;;;34.39;40.60;99072.50;5033208;28;20218;-71
2023/08/04 04:50:10;;;;;;;10.30;7.10;;;;;;;34.21;41.62;99065.78;5033135;28;20613;-72
2023/08/04 04:52:38;;;;;;;10.05;7.60;;;;;;;35.10;39.45;99081.81;5033312;28;20251;-72
2023/08/04 04:55:06;;;;;;;7.93;7.10;;;;;;;34.88;38.89;99084.56;5033174;28;20197;-71
2023/08/04 04:57:37;;;;;;;8.25;7.40;;;;;;;35.46;38.71;99089.59;5031859;28;20201;-70
2023/08/04 05:00:05;;;;;;;8.02;7.20;;;;;;;35.47;37.54;99091.19;5033289;28;20212;-70
2023/08/04 05:02:32;;;;;;;7.18;6.55;;;;;;;34.88;38.99;99087.31;5032864;28;20284;-70
2023/08/04 05:05:00;;;;;;;7.00;6.53;;;;;;;35.48;37.87;99097.50;5032490;28;20193;-70
2023/08/04 05:07:26;;;;;;;7.63;6.90;;;;;;;35.66;37.22;99087.53;5032001;28;20251;-70
2023/08/04 05:09:53;;;;;;;11.40;6.70;;;;;;;36.27;36.01;99085.31;5032181;28;20252;-69
2023/08/04 05:12:20;;;;;;;7.70;7.22;;;;;;;36.52;35.67;99094.75;5031456;28;20660;-68
2023/08/04 05:14:47;;;;;;;8.60;7.40;;;;;;;37.05;34.26;99088.66;5031607;28;20550;-69
2023/08/04 05:17:13;;;;;;;9.93;7.35;;;;;;;37.25;34.53;99089.28;5031834;28;20197;-69
2023/08/04 05:19:40;;;;;;;7.47;6.80;;;;;;;37.94;32.87;99091.03;5031835;28;20189;-67
2023/08/04 05:22:08;;;;;;;7.32;6.72;;;;;;;37.88;32.87;99084.25;5032228;28;20198;-68
2023/08/04 05:24:35;;;;;;;7.20;6.65;;;;;;;38.16;32.54;99086.44;5031391;28;20229;-67
2023/08/04 05:27:02;;;;;;;8.45;7.75;;;;;;;38.68;31.43;99100.59;5029564;28;20189;-66
2023/08/04 05:29:29;;;;;;;6.93;6.20;;;;;;;38.79;31.32;99104.22;5029954;28;20225;-68
2023/08/04 05:31:55;;;;;;;7.40;6.75;;;;;;;38.64;30.58;99097.00;5031343;28;20189;-67
2023/08/04 05:34:22;;;;;;;7.47;6.82;;;;;;;38.44;31.29;99092.91;5031490;28;20198;-65
2023/08/04 05:36:49;;;;;;;10.90;7.00;;;;;;;38.19;31.68;99086.47;5029333;28;20193;-68
2023/08/04 05:39:17;;;;;;;10.30;7.15;;;;;;;38.86;30.99;99093.09;5029141;28;20635;-70
2023/08/04 05:41:45;;;;;;;7.82;7.15;;;;;;;39.42;30.30;99098.81;5026410;28;20288;-70
2023/08/04 05:44:12;;;;;;;9.63;6.95;;;;;;;39.85;29.47;99099.63;5029839;28;20236;-70
2023/08/04 05:46:39;;;;;;;7.32;6.63;;;;;;;40.00;29.23;99096.41;5028783;28;20197;-68
2023/08/04 05:49:06;;;;;;;6.90;6.22;;;;;;;39.74;29.36;99088.47;5029621;28;20213;-66
2023/08/04 05:51:33;;;;;;;6.90;6.15;;;;;;;39.88;29.20;99104.41;5030534;28;20193;-67
2023/08/04 05:54:00;;;;;;;8.63;6.50;;;;;;;39.83;28.97;99097.22;5030715;28;20612;-67
2023/08/04 05:56:28;;;;;;;6.88;6.28;;;;;;;40.17;28.47;99095.56;5029875;28;20283;-66
2023/08/04 05:58:54;;;;;;;6.75;6.10;;;;;;;40.14;29.12;99099.19;5029952;28;20205;-66
2023/08/04 06:01:21;;;;;;;6.43;6.03;;;;;;;39.88;28.18;99099.59;5029770;28;20194;-62
2023/08/04 06:03:48;;;;;;;6.10;5.72;;;;;;;40.14;27.98;99101.97;5030401;28;20661;-67
2023/08/04 06:06:14;;;;;;;8.25;6.28;;;;;;;40.02;28.02;99098.78;5030771;28;20270;-64
2023/08/04 06:08:41;;;;;;;11.10;6.22;;;;;;;39.81;28.90;99099.59;5029020;28;20291;-64
2023/08/04 06:11:08;;;;;;;8.77;6.38;;;;;;;39.94;28.47;99100.00;5030464;28;20197;-64
2023/08/04 06:13:36;;;;;;;6.43;5.88;;;;;;;39.95;28.63;99099.59;5029742;28;20205;-67
2023/08/04 06:16:03;;;;;;;7.47;6.22;;;;;;;39.91;28.70;99098.00;5030100;28;20197;-68
2023/08/04 06:18:30;;;;;;;7.55;6.00;;;;;;;40.02;28.27;99096.00;5030486;28;20197;-67
2023/08/04 06:20:56;;;;;;;25.15;7.85;;;;;;;40.18;28.29;99097.19;5030055;28;20190;-66
2023/08/04 06:23:23;;;;;;;7.45;6.72;;;;;;;40.25;28.56;99097.16;5031117;28;20256;-66
2023/08/04 06:25:50;;;;;;;7.15;6.43;;;;;;;40.38;28.21;99105.88;5031381;28;20228;-67
2023/08/04 06:28:16;;;;;;;7.13;5.72;;;;;;;40.16;28.18;99105.13;5030404;28;20236;-67
2023/08/04 06:30:45;;;;;;;7.97;6.40;;;;;;;40.10;28.35;99115.09;5030143;28;20224;-67
2023/08/04 06:33:11;;;;;;;8.75;6.35;;;;;;;39.84;28.51;99104.38;5030220;28;20263;-65
2023/08/04 06:35:41;;;;;;;6.40;5.80;;;;;;;40.08;27.54;99097.16;5030468;28;20618;-65
2023/08/04 06:38:07;;;;;;;10.55;5.80;;;;;;;39.78;27.98;99096.84;5030402;28;20687;-70
2023/08/04 06:40:34;;;;;;;6.65;6.05;;;;;;;39.69;28.36;99094.44;5029136;28;20247;-67
2023/08/04 06:43:01;;;;;;;6.90;5.88;;;;;;;39.80;27.90;99100.81;5030079;28;20631;-66
2023/08/04 06:45:28;;;;;;;6.93;6.40;;;;;;;39.91;27.91;99104.38;5030221;28;20255;-67
2023/08/04 06:47:56;;;;;;;6.68;6.10;;;;;;;40.04;27.70;99097.19;5027640;28;20623;-69
2023/08/04 06:50:23;;;;;;;6.30;5.80;;;;;;;39.72;27.66;99085.28;5031608;28;20198;-68
2023/08/04 06:52:50;;;;;;;6.85;6.22;;;;;;;39.41;28.46;99091.66;5026093;28;20673;-69
2023/08/04 06:55:17;;;;;;;7.32;6.32;;;;;;;39.23;28.64;99090.81;5029135;28;20626;-70
2023/08/04 06:57:43;;;;;;;9.25;6.30;;;;;;;39.15;28.87;99086.44;5030157;28;20239;-69
2023/08/04 07:00:11;;;;;;;13.65;6.60;;;;;;;39.23;28.95;99082.47;5032996;28;20197;-70
2023/08/04 07:02:37;;;;;;;6.93;6.32;;;;;;;39.12;28.68;99081.69;5033042;28;20193;-69
2023/08/04 07:05:06;;;;;;;7.40;6.78;;;;;;;38.49;30.00;99078.69;5033453;28;20221;-73
2023/08/04 07:07:33;;;;;;;8.10;6.13;;;;;;;38.69;29.78;99079.97;5030901;28;20198;-70
2023/08/04 07:10:00;;;;;;;7.70;6.18;;;;;;;38.42;29.77;99078.66;5032164;28;20232;-70
2023/08/04 07:12:26;;;;;;;7.55;6.60;;;;;;;38.42;29.72;99075.88;5032237;28;20193;-68
2023/08/04 07:14:53;;;;;;;9.82;5.90;;;;;;;38.46;29.86;99073.88;5031023;28;20740;-73
2023/08/04 07:17:20;;;;;;;9.88;6.15;;;;;;;38.85;29.02;99080.41;5033821;28;20271;-66
2023/08/04 07:19:47;;;;;;;7.47;6.75;;;;;;;38.94;28.67;99080.06;5033352;28;20200;-68
2023/08/04 07:22:15;;;;;;;9.77;7.13;;;;;;;39.02;28.68;99081.66;5033621;28;20193;-68
2023/08/04 07:24:42;;;;;;;7.13;6.53;;;;;;;39.04;28.23;99087.63;5033292;28;20287;-66
2023/08/04 07:27:09;;;;;;;8.48;6.70;;;;;;;38.76;29.03;99077.22;5033946;28;20200;-68
2023/08/04 07:29:36;;;;;;;6.90;6.45;;;;;;;38.30;29.53;99075.41;5032734;28;20217;-68
2023/08/04 07:32:03;;;;;;;7.35;6.75;;;;;;;38.34;29.53;99077.03;5032467;28;20216;-68
2023/08/04 07:34:29;;;;;;;7.93;6.97;;;;;;;38.33;29.52;99075.41;5031869;28;20790;-67
2023/08/04 07:36:56;;;;;;;7.50;6.72;;;;;;;38.36;29.36;99069.09;5033469;28;20275;-66
2023/08/04 07:39:24;;;;;;;8.60;6.95;;;;;;;37.69;30.54;99065.13;5032351;28;20263;-68
2023/08/04 07:41:52;;;;;;;6.50;6.00;;;;;;;37.81;30.26;99059.25;5032260;28;20247;-65
2023/08/04 07:44:19;;;;;;;8.77;6.20;;;;;;;37.94;29.50;99057.75;5033053;28;20194;-64
2023/08/04 07:46:45;;;;;;;6.85;6.18;;;;;;;38.14;29.44;99061.84;5033054;28;20247;-66
2023/08/04 07:49:12;;;;;;;6.47;5.97;;;;;;;38.34;29.42;99054.81;5036617;28;20213;-64
2023/08/04 07:51:39;;;;;;;6.80;6.22;;;;;;;38.49;29.75;99056.47;5033111;28;20197;-69
2023/08/04 07:54:06;;;;;;;6.80;6.35;;;;;;;38.38;29.58;99049.28;5031273;28;20201;-65
2023/08/04 07:56:34;;;;;;;8.48;6.50;;;;;;;38.16;30.12;99031.72;5032621;28;20623;-65
2023/08/04 07:59:01;;;;;;;6.80;6.30;;;;;;;38.33;29.92;99049.66;5031360;28;20193;-65
2023/08/04 08:01:28;;;;;;;8.18;6.80;;;;;;;38.53;29.80;99048.94;5032562;28;20680;-64
2023/08/04 08:03:54;;;;;;;7.07;6.65;;;;;;;38.73;29.13;99052.19;5031609;28;20196;-66
2023/08/04 08:06:21;;;;;;;8.13;6.60;;;;;;;38.77;29.22;99050.19;5029930;28;20205;-70
2023/08/04 08:08:48;;;;;;;7.50;6.60;;;;;;;38.86;29.11;99045.88;5027780;28;20287;-66
2023/08/04 08:11:15;;;;;;;7.05;6.60;;;;;;;39.11;29.01;99043.94;5029757;28;20197;-65
2023/08/04 08:13:43;;;;;;;7.63;7.03;;;;;;;39.30;29.15;99040.78;5030396;28;20251;-66
2023/08/04 08:16:10;;;;;;;7.90;7.10;;;;;;;39.21;28.92;99054.28;5029956;28;20282;-64
2023/08/04 08:18:37;;;;;;;6.45;6.10;;;;;;;38.77;29.64;99039.09;5029437;28;20228;-63
2023/08/04 08:21:07;;;;;;;10.57;6.72;;;;;;;38.49;30.21;99034.25;5028722;28;20197;-64
2023/08/04 08:23:34;;;;;;;8.20;7.40;;;;;;;38.61;30.10;99024.78;5030210;28;20327;-64
2023/08/04 08:26:01;;;;;;;10.43;6.45;;;;;;;38.26;30.93;99025.44;5029000;28;20232;-64
2023/08/04 08:28:28;;;;;;;7.43;6.38;;;;;;;38.20;30.88;99031.75;5027532;28;20243;-67
2023/08/04 08:30:56;;;;;;;7.45;6.70;;;;;;;38.52;30.18;99029.91;5027388;28;20189;-66
2023/08/04 08:33:23;;;;;;;7.68;7.18;;;;;;;38.30;30.39;99026.25;5029931;28;20193;-64
2023/08/04 08:35:50;;;;;;;9.98;9.00;;;;;;;38.63;30.17;99020.44;5029737;28;20738;-63
2023/08/04 08:38:16;;;;;;;8.32;7.47;;;;;;;38.58;30.35;99031.91;5030250;28;20228;-65
2023/08/04 08:40:47;;;;;;;8.98;8.07;;;;;;;38.48;30.64;99021.56;5031181;28;20256;-65
2023/08/04 08:43:14;;;;;;;7.50;6.78;;;;;;;38.27;30.94;99029.81;5015138;28;20186;-66
2023/08/04 08:45:43;;;;;;;7.75;6.82;;;;;;;38.27;30.53;99015.13;5019778;28;20193;-65
2023/08/04 08:48:11;;;;;;;7.10;6.55;;;;;;;38.34;30.57;99010.41;5030339;28;20193;-65
2023/08/04 08:50:40;;;;;;;8.93;7.30;;;;;;;38.36;30.63;99008.03;5034304;28;20271;-65
2023/08/04 08:53:10;;;;;;;8.23;7.47;;;;;;;38.49;30.44;99012.06;5031148;28;20193;-66
2023/08/04 08:55:39;;;;;;;10.32;6.82;;;;;;;38.76;30.25;99021.66;5030724;28;20649;-66
2023/08/04 08:58:06;;;;;;;7.35;6.75;;;;;;;39.01;30.01;99014.19;5031770;28;20657;-65
2023/08/04 09:00:35;;;;;;;8.32;7.35;;;;;;;39.30;30.38;99007.44;5031774;28;20335;-65
2023/08/04 09:03:03;;;;;;;8.20;7.57;;;;;;;39.53;29.56;99007.03;5032363;28;20197;-65
2023/08/04 09:05:33;;;;;;;8.45;7.60;;;;;;;39.61;29.40;98998.28;5031812;28;20197;-64
2023/08/04 09:07:59;;;;;;;8.02;6.53;;;;;;;39.62;29.49;98999.06;5032514;28;20189;-65
2023/08/04 09:10:26;;;;;;;7.88;6.88;;;;;;;39.54;29.70;98995.50;5032305;28;20224;-65
2023/08/04 09:12:53;;;;;;;7.30;6.80;;;;;;;39.57;30.05;98988.34;5032616;28;20279;-64
2023/08/04 09:15:20;;;;;;;7.60;6.97;;;;;;;39.52;30.64;98986.75;5032212;28;20681;-65
2023/08/04 09:17:46;;;;;;;9.95;6.85;;;;;;;39.49;30.59;98982.03;5032492;28;20197;-64
2023/08/04 09:20:28;;;;;;;8.27;7.72;;;;;;;39.40;31.05;98973.28;5032389;28;20197;-64
2023/08/04 09:22:56;;;;;;;8.80;7.25;;;;;;;39.11;31.05;98982.78;5032096;28;20182;-64
2023/08/04 09:25:23;;;;;;;8.50;7.93;;;;;;;39.07;30.69;98976.44;5032411;28;20316;-64
2023/08/04 09:27:50;;;;;;;8.20;7.75;;;;;;;38.54;31.72;98975.56;5032147;28;20201;-65
2023/08/04 09:30:18;;;;;;;8.43;7.90;;;;;;;38.47;31.56;98975.56;5031891;28;20301;-63
2023/08/04 09:32:47;;;;;;;8.85;8.00;;;;;;;38.10;32.56;98966.69;5032179;28;20252;-64
2023/08/04 09:35:14;;;;;;;8.45;7.85;;;;;;;38.27;33.18;98963.19;5032194;28;20201;-64
2023/08/04 09:37:41;;;;;;;8.02;7.63;;;;;;;38.57;31.40;98963.69;5031737;28;20726;-64
2023/08/04 09:40:15;;;;;;;9.02;8.18;;;;;;;38.69;31.37;98965.28;5030756;28;20258;-66
2023/08/04 09:42:42;;;;;;;10.15;8.18;;;;;;;38.88;31.62;98967.69;5031239;28;20271;-67
2023/08/04 09:45:14;;;;;;;10.13;8.05;;;;;;;38.72;31.55;98965.28;5028465;28;20576;-69
2023/08/04 09:47:40;;;;;;;10.02;9.13;;;;;;;38.66;32.31;98960.53;5030082;28;20221;-69
2023/08/04 09:50:10;;;;;;;8.48;7.95;;;;;;;38.87;31.50;98961.31;5033436;28;20766;-71
2023/08/04 09:52:36;;;;;;;9.30;7.80;;;;;;;38.92;30.99;98957.41;5028537;28;20203;-71
2023/08/04 09:55:03;;;;;;;8.27;7.63;;;;;;;39.08;30.87;98955.81;5030076;28;20243;-68
2023/08/04 09:57:32;;;;;;;8.88;8.10;;;;;;;38.84;30.93;98961.34;5028569;28;20200;-68
2023/08/04 09:59:59;;;;;;;7.72;7.35;;;;;;;39.10;30.75;98958.19;5030400;28;20193;-71
2023/08/04 10:02:27;;;;;;;7.53;7.13;;;;;;;39.09;30.69;98946.28;5029802;28;20193;-71
2023/08/04 10:04:55;;;;;;;8.40;7.90;;;;;;;39.01;31.03;98949.44;5029852;28;20194;-77
2023/08/04 10:07:21;;;;;;;12.00;8.35;;;;;;;39.21;31.15;98931.19;5029810;28;20196;-74
2023/08/04 10:09:49;;;;;;;8.93;8.32;;;;;;;39.23;30.40;98943.47;5029507;28;20217;-79
2023/08/04 10:12:17;;;;;;;11.13;7.65;;;;;;;39.51;30.37;98940.69;5030528;28;20197;-77
2023/08/04 10:14:46;;;;;;;8.60;8.02;;;;;;;39.61;30.46;98928.75;5030648;28;20193;-79
2023/08/04 10:17:13;;;;;;;9.57;8.70;;;;;;;39.70;29.80;98939.44;5031033;28;20203;-77
2023/08/04 10:19:40;;;;;;;8.38;7.63;;;;;;;39.82;29.79;98934.28;5030911;28;20683;-78
2023/08/04 10:22:09;;;;;;;8.93;8.15;;;;;;;39.98;29.72;98945.75;5030570;28;20204;-77
2023/08/04 10:24:37;;;;;;;8.55;7.15;;;;;;;40.06;28.75;98947.28;5029694;28;20260;-78
2023/08/04 10:27:16;;;;;;;7.75;7.20;;;;;;;39.89;29.14;98923.09;5030508;28;20193;-76
2023/08/04 10:29:43;;;;;;;8.80;8.10;;;;;;;39.65;29.53;98935.09;5029661;28;20251;-74
2023/08/04 10:32:11;;;;;;;8.43;7.85;;;;;;;39.81;29.63;98920.75;5030064;28;20657;-74
2023/08/04 10:34:42;;;;;;;8.07;7.38;;;;;;;40.03;29.02;98916.69;5034619;28;20678;-74
2023/08/04 10:37:15;;;;;;;8.68;8.10;;;;;;;40.14;28.93;98921.00;5034017;28;20197;-75
2023/08/04 10:39:43;;;;;;;9.25;8.60;;;;;;;39.48;30.49;98908.09;5032318;28;20197;-73
2023/08/04 10:42:22;;;;;;;8.93;7.70;;;;;;;39.78;29.89;98899.31;5032396;28;20224;-77
2023/08/04 10:44:56;;;;;;;8.98;8.23;;;;;;;39.17;30.38;98897.03;5032997;28;20181;-76
2023/08/04 10:47:32;;;;;;;8.70;8.18;;;;;;;39.56;30.13;98895.78;5034122;28;20197;-76
2023/08/04 10:50:00;;;;;;;8.73;7.80;;;;;;;39.77;29.82;98878.25;5032378;28;20708;-76
2023/08/04 10:52:27;;;;;;;10.63;8.55;;;;;;;39.86;29.90;98868.28;5032999;28;20280;-77
2023/08/04 10:54:54;;;;;;;7.30;7.00;;;;;;;40.16;29.25;98870.47;5033886;28;20193;-77
2023/08/04 10:57:22;;;;;;;8.18;7.40;;;;;;;40.10;28.57;98870.13;5034011;28;20263;-76
2023/08/04 10:59:49;;;;;;;7.78;7.15;;;;;;;40.26;28.43;98864.88;5029398;28;20232;-78
2023/08/04 11:02:18;;;;;;;8.18;7.35;;;;;;;40.45;27.92;98861.56;5034020;28;20207;-79
2023/08/04 11:04:47;;;;;;;7.65;7.15;;;;;;;40.46;27.39;98857.56;5033889;28;20197;-77
2023/08/04 11:07:14;;;;;;;7.38;6.97;;;;;;;40.22;27.69;98852.97;5033204;28;20201;-73
2023/08/04 11:09:42;;;;;;;8.25;7.07;;;;;;;40.34;27.53;98848.91;5032549;28;20696;-71
2023/08/04 11:12:10;;;;;;;7.43;7.03;;;;;;;40.46;27.25;98837.28;5032680;28;20190;-72
2023/08/04 11:14:37;;;;;;;7.63;6.88;;;;;;;40.59;27.07;98850.31;5032804;28;20201;-70
2023/08/04 11:17:12;;;;;;;7.38;6.82;;;;;;;40.61;25.98;98825.66;5033961;28;20193;-71
2023/08/04 11:19:39;;;;;;;6.97;6.43;;;;;;;40.67;25.80;98829.56;5033399;28;20263;-70
2023/08/04 11:22:12;;;;;;;7.30;6.60;;;;;;;40.31;25.61;98821.88;5034498;28;20568;-72
2023/08/04 11:24:39;;;;;;;7.28;6.68;;;;;;;40.21;25.17;98817.19;5033484;28;20363;-72
2023/08/04 11:27:06;;;;;;;8.77;6.28;;;;;;;39.95;24.91;98812.16;5033640;28;20267;-71
2023/08/04 11:29:33;;;;;;;5.95;5.50;;;;;;;40.12;24.84;98809.28;5032311;28;20255;-71
2023/08/04 11:32:00;;;;;;;6.28;5.90;;;;;;;40.08;24.66;98802.13;5032023;28;20197;-71